createdAt,value
2023-05-16T00:05:44.991Z,3.10
2023-05-16T00:08:14.362Z,3.50
2023-05-16T00:10:42.154Z,3.85
2023-05-16T00:13:10.091Z,3.22
2023-05-16T00:15:39.984Z,2.88
2023-05-16T00:18:07.710Z,3.03
2023-05-16T00:20:35.514Z,3.28
2023-05-16T00:23:03.922Z,3.30
2023-05-16T00:25:32.470Z,3.00
2023-05-16T00:28:00.228Z,2.58
2023-05-16T00:30:28.289Z,3.20
2023-05-16T00:32:56.779Z,2.92
2023-05-16T00:35:27.572Z,2.70
2023-05-16T00:37:56.228Z,3.17
2023-05-16T00:40:26.963Z,3.35
2023-05-16T00:42:55.215Z,3.20
2023-05-16T00:45:25.781Z,2.53
2023-05-16T00:50:24.210Z,3.10
2023-05-16T00:53:02.167Z,2.72
2023-05-16T00:55:31.203Z,2.97
2023-05-16T00:57:59.906Z,3.60
2023-05-16T01:00:28.130Z,2.33
2023-05-16T01:02:57.080Z,1.90
2023-05-16T01:05:24.779Z,2.42
2023-05-16T01:07:52.764Z,2.78
2023-05-16T01:10:23.381Z,2.78
2023-05-16T01:13:07.471Z,2.83
2023-05-16T01:15:40.865Z,2.08
2023-05-16T01:18:11.537Z,2.60
2023-05-16T01:20:50.793Z,2.92
2023-05-16T01:23:32.099Z,2.40
2023-05-16T01:26:15.043Z,3.10
2023-05-16T01:28:42.817Z,2.38
2023-05-16T01:31:13.721Z,3.28
2023-05-16T01:33:42.433Z,2.53
2023-05-16T01:36:13.570Z,2.22
2023-05-16T01:39:03.334Z,2.50
2023-05-16T01:41:37.141Z,2.47
2023-05-16T01:44:08.610Z,2.25
2023-05-16T01:46:40.066Z,2.53
2023-05-16T01:49:31.414Z,2.45
2023-05-16T01:52:03.822Z,2.38
2023-05-16T01:54:32.942Z,2.40
2023-05-16T01:57:04.637Z,2.45
2023-05-16T01:59:33.829Z,2.38
2023-05-16T02:02:01.710Z,1.95
2023-05-16T02:04:29.531Z,2.28
2023-05-16T02:06:57.740Z,2.95
2023-05-16T02:09:26.389Z,2.65
2023-05-16T02:11:54.322Z,2.20
2023-05-16T02:14:22.543Z,3.25
2023-05-16T02:16:54.158Z,2.35
2023-05-16T02:21:51.002Z,3.33
2023-05-16T02:24:18.755Z,2.45
2023-05-16T02:26:54.333Z,2.40
2023-05-16T02:29:22.775Z,2.05
2023-05-16T02:31:52.792Z,2.60
2023-05-16T02:34:21.402Z,2.28
2023-05-16T02:36:51.196Z,2.90
2023-05-16T02:39:18.946Z,2.55
2023-05-16T02:41:53.543Z,2.92
2023-05-16T02:44:22.120Z,2.05
2023-05-16T02:46:51.059Z,2.53
2023-05-16T02:49:19.447Z,2.38
2023-05-16T02:51:48.137Z,2.60
2023-05-16T02:54:16.090Z,2.47
2023-05-16T02:56:43.780Z,2.90
2023-05-16T02:59:12.279Z,2.40
2023-05-16T03:01:40.316Z,2.70
2023-05-16T03:04:08.649Z,2.50
2023-05-16T03:06:36.367Z,2.80
2023-05-16T03:09:04.104Z,2.38
2023-05-16T03:11:31.977Z,2.33
2023-05-16T03:14:01.831Z,2.90
2023-05-16T03:16:29.726Z,2.50
2023-05-16T03:18:57.644Z,2.38
2023-05-16T03:21:25.245Z,2.30
2023-05-16T03:23:53.028Z,2.10
2023-05-16T03:26:22.955Z,2.35
2023-05-16T03:28:53.277Z,2.65
2023-05-16T03:31:21.967Z,2.25
2023-05-16T03:33:51.701Z,2.40
2023-05-16T03:36:22.641Z,2.22
2023-05-16T03:38:52.350Z,2.67
2023-05-16T03:41:23.457Z,1.90
2023-05-16T03:43:51.815Z,2.40
2023-05-16T03:46:23.415Z,2.85
2023-05-16T03:48:52.724Z,2.00
2023-05-16T03:51:21.216Z,2.55
2023-05-16T03:53:51.454Z,3.10
2023-05-16T03:56:19.525Z,2.28
2023-05-16T03:58:48.883Z,2.35
2023-05-16T04:01:21.606Z,2.63
2023-05-16T04:03:51.912Z,2.72
2023-05-16T04:06:20.493Z,2.50
2023-05-16T04:08:48.382Z,2.53
2023-05-16T04:11:16.022Z,2.60
2023-05-16T04:13:43.808Z,2.38
2023-05-16T04:16:11.555Z,3.20
2023-05-16T04:18:40.646Z,2.45
2023-05-16T04:21:10.934Z,2.00
2023-05-16T04:23:38.506Z,2.80
2023-05-16T04:26:06.034Z,2.85
2023-05-16T04:28:33.740Z,2.10
2023-05-16T04:31:02.370Z,2.40
2023-05-16T04:33:30.176Z,2.28
2023-05-16T04:35:59.014Z,2.05
2023-05-16T04:38:26.911Z,3.03
2023-05-16T04:40:54.951Z,2.47
2023-05-16T04:43:25.277Z,2.53
2023-05-16T04:45:58.811Z,3.25
2023-05-16T04:48:26.542Z,2.38
2023-05-16T04:50:54.414Z,2.45
2023-05-16T04:53:22.426Z,2.63
2023-05-16T04:55:50.875Z,2.38
2023-05-16T04:58:18.894Z,2.55
2023-05-16T05:00:47.909Z,2.35
2023-05-16T05:03:15.649Z,2.50
2023-05-16T05:05:47.878Z,2.60
2023-05-16T05:08:15.453Z,2.55
2023-05-16T05:10:44.097Z,2.05
2023-05-16T05:13:12.516Z,2.85
2023-05-16T05:15:40.318Z,2.65
2023-05-16T05:18:08.321Z,3.05
2023-05-16T05:20:36.744Z,2.65
2023-05-16T05:23:04.472Z,2.63
2023-05-16T05:25:35.876Z,2.05
2023-05-16T05:28:04.962Z,2.47
2023-05-16T05:30:32.524Z,2.38
2023-05-16T05:33:00.568Z,2.03
2023-05-16T05:35:29.279Z,3.83
2023-05-16T05:37:57.250Z,2.30
2023-05-16T05:40:25.397Z,2.20
2023-05-16T05:42:55.909Z,2.25
2023-05-16T05:45:24.837Z,2.78
2023-05-16T05:47:52.868Z,2.25
2023-05-16T05:50:21.806Z,2.92
2023-05-16T05:52:51.794Z,2.50
2023-05-16T05:55:20.953Z,2.38
2023-05-16T05:57:48.681Z,2.88
2023-05-16T06:00:16.290Z,2.03
2023-05-16T06:02:44.349Z,1.95
2023-05-16T06:05:12.919Z,2.17
2023-05-16T06:07:40.441Z,2.40
2023-05-16T06:10:09.082Z,2.35
2023-05-16T06:12:36.669Z,2.22
2023-05-16T06:15:05.873Z,2.03
2023-05-16T06:17:33.519Z,2.80
2023-05-16T06:20:01.747Z,2.28
2023-05-16T06:22:32.270Z,2.15
2023-05-16T06:25:00.611Z,1.92
2023-05-16T06:27:28.279Z,2.67
2023-05-16T06:32:26.221Z,1.95
2023-05-16T06:34:54.014Z,2.17
2023-05-16T06:37:26.221Z,3.08
2023-05-16T06:39:53.871Z,1.83
2023-05-16T06:42:24.934Z,2.05
2023-05-16T06:44:53.283Z,2.20
2023-05-16T06:47:24.501Z,1.85
2023-05-16T06:49:53.155Z,1.88
2023-05-16T06:52:21.559Z,1.85
2023-05-16T06:54:50.128Z,1.60
2023-05-16T06:57:17.786Z,1.92
2023-05-16T06:59:46.421Z,1.20
2023-05-16T07:02:14.484Z,2.15
2023-05-16T07:04:42.905Z,1.98
2023-05-16T07:07:10.972Z,2.65
2023-05-16T07:09:38.766Z,1.90
2023-05-16T07:12:06.750Z,1.50
2023-05-16T07:14:35.695Z,1.73
2023-05-16T07:17:03.966Z,1.42
2023-05-16T07:19:32.718Z,1.83
2023-05-16T07:22:01.629Z,1.92
2023-05-16T07:24:29.594Z,1.95
2023-05-16T07:26:58.015Z,1.50
2023-05-16T07:29:26.907Z,1.90
2023-05-16T07:31:54.794Z,1.50
2023-05-16T07:34:23.365Z,1.90
2023-05-16T07:36:53.643Z,1.35
2023-05-16T07:39:23.111Z,1.65
2023-05-16T07:41:51.726Z,1.95
2023-05-16T07:44:22.451Z,2.17
2023-05-16T07:46:51.885Z,1.83
2023-05-16T07:49:20.287Z,1.80
2023-05-16T07:51:47.856Z,1.45
2023-05-16T07:54:15.642Z,1.50
2023-05-16T07:56:43.387Z,1.60
2023-05-16T07:59:11.279Z,1.27
2023-05-16T08:01:39.022Z,1.08
2023-05-16T08:04:07.323Z,2.03
2023-05-16T08:06:35.008Z,1.10
2023-05-16T08:09:05.126Z,1.38
2023-05-16T08:11:33.325Z,1.20
2023-05-16T08:14:01.370Z,1.30
2023-05-16T08:16:29.360Z,1.00
2023-05-16T08:18:56.954Z,0.85
2023-05-16T08:21:25.725Z,1.40
2023-05-16T08:23:53.503Z,1.20
2023-05-16T08:26:24.096Z,1.40
2023-05-16T08:28:53.168Z,1.38
2023-05-16T08:31:21.909Z,1.35
2023-05-16T08:33:50.424Z,1.10
2023-05-16T08:36:20.657Z,1.00
2023-05-16T08:38:51.961Z,1.25
2023-05-16T08:41:20.552Z,1.55
2023-05-16T08:43:48.306Z,1.30
2023-05-16T08:46:16.889Z,1.20
2023-05-16T08:48:47.474Z,1.33
2023-05-16T08:51:16.888Z,1.05
2023-05-16T08:53:46.694Z,1.20
2023-05-16T08:56:16.038Z,1.58
2023-05-16T08:58:44.091Z,0.77
2023-05-16T09:01:12.238Z,0.93
2023-05-16T09:03:40.556Z,1.15
2023-05-16T09:06:08.592Z,0.80
2023-05-16T09:08:36.566Z,0.88
2023-05-16T09:11:05.047Z,0.65
2023-05-16T09:13:33.095Z,0.90
2023-05-16T09:16:14.221Z,0.63
2023-05-16T09:18:44.057Z,0.82
2023-05-16T09:21:12.565Z,1.10
2023-05-16T09:23:40.581Z,0.57
2023-05-16T09:26:08.435Z,0.90
2023-05-16T09:28:39.341Z,1.00
2023-05-16T09:31:26.798Z,0.75
2023-05-16T09:33:55.233Z,1.23
2023-05-16T09:36:24.606Z,0.88
2023-05-16T09:38:53.560Z,0.70
2023-05-16T09:41:23.259Z,1.08
2023-05-16T09:43:52.129Z,0.93
2023-05-16T09:46:23.060Z,0.85
2023-05-16T09:48:52.803Z,0.98
2023-05-16T09:51:23.482Z,1.13
2023-05-16T09:53:52.682Z,1.08
2023-05-16T09:56:23.276Z,1.30
2023-05-16T09:58:52.945Z,1.10
2023-05-16T10:01:24.413Z,0.90
2023-05-16T10:03:52.949Z,1.35
2023-05-16T10:06:22.988Z,0.88
2023-05-16T10:08:52.589Z,0.95
2023-05-16T10:11:22.112Z,1.05
2023-05-16T10:13:53.403Z,1.00
2023-05-16T10:16:24.174Z,1.10
2023-05-16T10:18:53.566Z,1.02
2023-05-16T10:21:23.982Z,1.00
2023-05-16T10:23:54.088Z,1.40
2023-05-16T10:26:23.695Z,1.10
2023-05-16T10:28:52.840Z,1.48
2023-05-16T10:31:22.084Z,1.00
2023-05-16T10:33:50.382Z,1.17
2023-05-16T10:36:18.617Z,1.20
2023-05-16T10:38:46.702Z,1.42
2023-05-16T10:41:15.138Z,1.00
2023-05-16T10:43:46.488Z,1.00
2023-05-16T10:46:15.754Z,1.10
2023-05-16T10:48:43.513Z,1.00
2023-05-16T10:51:34.460Z,1.10
2023-05-16T10:54:10.817Z,0.88
2023-05-16T10:56:41.119Z,0.90
2023-05-16T10:59:24.439Z,0.93
2023-05-16T11:01:57.324Z,1.15
2023-05-16T11:04:25.232Z,0.90
2023-05-16T11:06:53.942Z,1.00
2023-05-16T11:09:28.119Z,1.17
2023-05-16T11:11:58.158Z,1.05
2023-05-16T11:14:35.180Z,1.00
2023-05-16T11:17:13.587Z,0.93
2023-05-16T11:19:48.512Z,0.98
2023-05-16T11:22:23.908Z,1.10
2023-05-16T11:25:01.979Z,1.15
2023-05-16T11:27:29.884Z,0.98
2023-05-16T11:30:04.146Z,1.15
2023-05-16T11:32:34.572Z,1.15
2023-05-16T11:35:04.106Z,1.25
2023-05-16T11:37:32.787Z,0.93
2023-05-16T11:40:09.398Z,1.15
2023-05-16T11:42:38.428Z,1.27
2023-05-16T11:45:18.082Z,1.23
2023-05-16T11:47:48.177Z,1.40
2023-05-16T11:50:17.280Z,1.20
2023-05-16T11:53:01.092Z,1.20
2023-05-16T11:55:42.109Z,0.90
2023-05-16T11:58:10.606Z,1.10
2023-05-16T12:00:38.468Z,1.33
2023-05-16T12:03:08.367Z,0.93
2023-05-16T12:05:36.386Z,1.30
2023-05-16T12:08:05.267Z,0.95
2023-05-16T12:10:37.366Z,0.90
2023-05-16T12:13:05.217Z,0.90
2023-05-16T12:15:34.691Z,1.20
2023-05-16T12:18:02.753Z,1.30
2023-05-16T12:20:30.900Z,1.08
2023-05-16T12:22:59.565Z,0.98
2023-05-16T12:25:42.124Z,1.13
2023-05-16T12:28:10.569Z,1.30
2023-05-16T12:30:40.972Z,1.27
2023-05-16T12:35:42.294Z,1.30
2023-05-16T12:38:11.978Z,0.95
2023-05-16T12:40:40.678Z,1.00
2023-05-16T12:43:34.539Z,1.13
2023-05-16T12:46:03.114Z,1.40
2023-05-16T12:48:35.396Z,1.00
2023-05-16T12:51:17.218Z,1.23
2023-05-16T12:54:05.659Z,1.20
2023-05-16T12:56:42.228Z,1.02
2023-05-16T12:59:10.752Z,1.23
2023-05-16T13:01:38.990Z,1.33
2023-05-16T13:04:06.786Z,1.05
2023-05-16T13:06:49.406Z,1.08
2023-05-16T13:09:23.881Z,0.98
2023-05-16T13:11:58.008Z,1.08
2023-05-16T13:14:26.765Z,1.25
2023-05-16T13:16:54.277Z,0.95
2023-05-16T13:19:24.718Z,0.90
2023-05-16T13:24:21.051Z,1.30
2023-05-16T13:26:48.659Z,0.93
2023-05-16T13:29:16.681Z,0.70
2023-05-16T13:31:45.113Z,1.23
2023-05-16T13:34:14.777Z,0.98
2023-05-16T13:36:53.907Z,1.40
2023-05-16T13:41:52.783Z,1.35
2023-05-16T13:44:24.777Z,1.75
2023-05-16T13:46:52.913Z,1.45
2023-05-16T13:49:21.955Z,1.13
2023-05-16T13:51:50.452Z,1.25
2023-05-16T13:54:18.286Z,1.05
2023-05-16T13:56:46.251Z,1.27
2023-05-16T13:59:20.202Z,0.95
2023-05-16T14:01:52.854Z,1.08
2023-05-16T14:04:22.226Z,1.05
2023-05-16T14:06:51.983Z,1.42
2023-05-16T14:09:20.963Z,1.17
2023-05-16T14:11:50.639Z,1.13
2023-05-16T14:14:18.535Z,1.17
2023-05-16T14:16:46.702Z,1.10
2023-05-16T14:19:18.176Z,0.90
2023-05-16T14:21:48.504Z,1.35
2023-05-16T14:24:16.162Z,1.50
2023-05-16T14:26:43.732Z,1.08
2023-05-16T14:29:11.458Z,1.65
2023-05-16T14:31:39.734Z,1.48
2023-05-16T14:34:07.489Z,1.40
2023-05-16T14:36:35.388Z,1.33
2023-05-16T14:39:03.129Z,1.10
2023-05-16T14:41:31.648Z,1.63
2023-05-16T14:43:59.540Z,1.30
2023-05-16T14:46:27.206Z,1.75
2023-05-16T14:48:55.223Z,2.00
2023-05-16T14:51:23.042Z,2.20
2023-05-16T14:53:54.130Z,1.65
2023-05-16T14:56:23.199Z,1.77
2023-05-16T14:58:52.120Z,1.40
2023-05-16T15:01:22.238Z,1.20
2023-05-16T15:06:26.393Z,1.40
2023-05-16T15:08:54.762Z,1.47
2023-05-16T15:11:23.400Z,1.92
2023-05-16T15:13:53.464Z,1.70
2023-05-16T15:16:21.989Z,1.77
2023-05-16T15:18:50.820Z,1.50
2023-05-16T15:21:18.469Z,1.60
2023-05-16T15:23:47.625Z,1.85
2023-05-16T15:26:15.578Z,1.40
2023-05-16T15:28:43.527Z,1.70
2023-05-16T15:31:11.060Z,1.65
2023-05-16T15:33:38.923Z,1.88
2023-05-16T15:36:07.795Z,1.75
2023-05-16T15:38:36.576Z,1.35
2023-05-16T15:43:42.110Z,1.75
2023-05-16T15:46:11.509Z,1.70
2023-05-16T15:48:45.020Z,1.73
2023-05-16T15:51:13.707Z,1.08
2023-05-16T15:53:41.725Z,1.33
2023-05-16T15:56:10.021Z,1.20
2023-05-16T15:58:37.916Z,1.00
2023-05-16T16:01:05.504Z,2.40
2023-05-16T16:03:33.377Z,1.40
2023-05-16T16:06:01.408Z,1.30
2023-05-16T16:08:29.298Z,1.05
2023-05-16T16:10:57.125Z,1.75
2023-05-16T16:13:24.755Z,1.23
2023-05-16T16:15:52.768Z,1.30
2023-05-16T16:18:21.854Z,1.33
2023-05-16T16:20:52.455Z,1.27
2023-05-16T16:23:20.739Z,1.48
2023-05-16T16:25:48.494Z,1.35
2023-05-16T16:28:16.809Z,1.30
2023-05-16T16:30:47.443Z,1.48
2023-05-16T16:33:15.563Z,1.30
2023-05-16T16:35:43.461Z,1.90
2023-05-16T16:38:11.221Z,1.52
2023-05-16T16:40:39.338Z,4.38
2023-05-16T16:43:08.226Z,8.63
2023-05-16T16:45:35.975Z,17.98
2023-05-16T16:48:03.876Z,47.60
2023-05-16T16:50:32.810Z,24.77
2023-05-16T16:53:04.386Z,8.25
2023-05-16T16:55:32.543Z,24.00
2023-05-16T16:58:01.601Z,10.00
2023-05-16T17:00:29.589Z,7.53
2023-05-16T17:02:57.342Z,6.22
2023-05-16T17:05:25.576Z,3.00
2023-05-16T17:07:53.682Z,2.05
2023-05-16T17:10:22.011Z,1.60
2023-05-16T17:12:51.596Z,1.40
2023-05-16T17:15:20.493Z,1.40
2023-05-16T17:17:50.611Z,1.30
2023-05-16T17:20:18.588Z,1.48
2023-05-16T17:22:48.692Z,1.23
2023-05-16T17:25:16.541Z,1.30
2023-05-16T17:27:44.906Z,1.20
2023-05-16T17:30:13.005Z,1.58
2023-05-16T17:32:40.820Z,1.42
2023-05-16T17:35:08.655Z,1.40
2023-05-16T17:37:37.410Z,1.30
2023-05-16T17:40:05.957Z,1.40
2023-05-16T17:42:35.271Z,1.48
2023-05-16T17:45:04.413Z,1.90
2023-05-16T17:47:32.358Z,1.55
2023-05-16T17:50:00.579Z,1.60
2023-05-16T17:52:29.546Z,1.40
2023-05-16T17:54:58.172Z,1.38
2023-05-16T17:57:26.688Z,1.60
2023-05-16T18:00:00.828Z,1.77
2023-05-16T18:02:28.537Z,1.75
2023-05-16T18:04:56.883Z,1.30
2023-05-16T18:07:25.453Z,1.85
2023-05-16T18:09:54.263Z,1.80
2023-05-16T18:12:24.347Z,1.40
2023-05-16T18:14:53.342Z,2.42
2023-05-16T18:17:21.959Z,1.63
2023-05-16T18:19:50.577Z,1.80
2023-05-16T18:22:18.469Z,1.65
2023-05-16T18:24:46.767Z,1.80
2023-05-16T18:27:14.641Z,2.08
2023-05-16T18:29:42.624Z,1.63
2023-05-16T18:32:10.521Z,1.55
2023-05-16T18:34:38.390Z,1.95
2023-05-16T18:37:06.924Z,2.00
2023-05-16T18:39:34.696Z,1.70
2023-05-16T18:42:02.858Z,1.65
2023-05-16T18:44:30.891Z,1.63
2023-05-16T18:46:58.964Z,1.75
2023-05-16T18:49:26.881Z,1.50
2023-05-16T18:51:54.768Z,1.60
2023-05-16T18:54:24.255Z,2.47
2023-05-16T18:56:56.076Z,3.70
2023-05-16T18:59:23.943Z,2.55
2023-05-16T19:01:52.352Z,2.30
2023-05-16T19:04:21.515Z,2.30
2023-05-16T19:06:50.413Z,2.30
2023-05-16T19:09:18.034Z,1.92
2023-05-16T19:11:46.436Z,1.60
2023-05-16T19:14:14.863Z,2.63
2023-05-16T19:16:43.641Z,2.90
2023-05-16T19:19:11.462Z,2.80
2023-05-16T19:21:42.179Z,2.90
2023-05-16T19:24:10.196Z,2.10
2023-05-16T19:26:38.566Z,2.05
2023-05-16T19:29:06.316Z,1.80
2023-05-16T19:31:36.812Z,2.22
2023-05-16T19:34:05.418Z,1.90
2023-05-16T19:36:39.214Z,1.95
2023-05-16T19:39:07.142Z,1.85
2023-05-16T19:41:34.866Z,2.28
2023-05-16T19:44:02.477Z,1.73
2023-05-16T19:46:30.406Z,1.90
2023-05-16T19:48:58.128Z,2.20
2023-05-16T19:51:40.055Z,2.13
2023-05-16T19:54:09.895Z,2.00
2023-05-16T19:56:37.745Z,2.00
2023-05-16T19:59:05.537Z,2.53
2023-05-16T20:01:33.145Z,2.20
2023-05-16T20:04:01.014Z,2.20
2023-05-16T20:06:29.334Z,2.35
2023-05-16T20:08:57.081Z,2.60
2023-05-16T20:11:24.664Z,2.58
2023-05-16T20:13:53.677Z,2.65
2023-05-16T20:16:22.657Z,2.20
2023-05-16T20:18:51.795Z,2.17
2023-05-16T20:21:20.506Z,2.50
2023-05-16T20:23:48.301Z,2.75
2023-05-16T20:26:15.994Z,2.38
2023-05-16T20:28:43.701Z,2.67
2023-05-16T20:31:11.422Z,2.65
2023-05-16T20:33:42.051Z,2.83
2023-05-16T20:36:10.438Z,2.97
2023-05-16T20:38:38.962Z,2.58
2023-05-16T20:41:06.843Z,2.58
2023-05-16T20:43:34.490Z,2.85
2023-05-16T20:46:02.202Z,2.55
2023-05-16T20:48:31.397Z,2.42
2023-05-16T20:51:01.441Z,3.13
2023-05-16T20:53:29.719Z,2.65
2023-05-16T20:55:57.391Z,3.00
2023-05-16T20:58:25.131Z,2.75
2023-05-16T21:00:53.014Z,2.50
2023-05-16T21:03:21.799Z,3.15
2023-05-16T21:05:50.512Z,2.90
2023-05-16T21:08:18.581Z,3.20
2023-05-16T21:10:46.259Z,3.55
2023-05-16T21:13:13.946Z,3.38
2023-05-16T21:15:42.379Z,3.58
2023-05-16T21:18:10.714Z,3.17
2023-05-16T21:20:41.606Z,3.60
2023-05-16T21:23:09.358Z,3.80
2023-05-16T21:25:37.017Z,4.20
2023-05-16T21:28:04.914Z,3.90
2023-05-16T21:30:33.616Z,3.40
2023-05-16T21:33:01.687Z,3.05
2023-05-16T21:35:29.738Z,3.30
2023-05-16T21:37:59.167Z,4.13
2023-05-16T21:40:29.024Z,3.70
2023-05-16T21:42:56.749Z,3.08
2023-05-16T21:45:24.324Z,3.25
2023-05-16T21:47:53.640Z,3.38
2023-05-16T21:50:23.551Z,3.45
2023-05-16T21:52:53.028Z,3.00
2023-05-16T21:55:24.352Z,3.30
2023-05-16T21:57:53.077Z,3.20
2023-05-16T22:00:24.544Z,3.25
2023-05-16T22:02:52.934Z,3.20
2023-05-16T22:05:24.166Z,3.42
2023-05-16T22:07:52.657Z,3.47
2023-05-16T22:10:21.646Z,2.90
2023-05-16T22:12:50.661Z,3.15
2023-05-16T22:15:18.544Z,3.60
2023-05-16T22:17:48.248Z,2.78
2023-05-16T22:20:16.091Z,2.58
2023-05-16T22:22:44.913Z,2.80
2023-05-16T22:25:12.689Z,2.75
2023-05-16T22:27:40.673Z,2.70
2023-05-16T22:30:09.220Z,3.03
2023-05-16T22:32:36.919Z,2.97
2023-05-16T22:35:05.021Z,3.03
2023-05-16T22:37:32.520Z,2.97
2023-05-16T22:40:00.480Z,3.40
2023-05-16T22:42:29.138Z,3.42
2023-05-16T22:44:57.479Z,3.40
2023-05-16T22:47:25.152Z,2.80
2023-05-16T22:49:52.801Z,3.17
2023-05-16T22:52:26.021Z,3.33
2023-05-16T22:54:53.989Z,3.00
2023-05-16T22:57:22.473Z,3.72
2023-05-16T22:59:50.252Z,2.80
2023-05-16T23:02:17.843Z,2.95
2023-05-16T23:04:45.854Z,2.63
2023-05-16T23:07:13.439Z,2.40
2023-05-16T23:09:41.947Z,2.78
2023-05-16T23:12:10.189Z,3.58
2023-05-16T23:14:38.670Z,2.55
2023-05-16T23:17:06.591Z,2.75
2023-05-16T23:19:34.478Z,3.70
2023-05-16T23:22:03.731Z,2.63
2023-05-16T23:24:31.201Z,4.63
2023-05-16T23:26:59.381Z,3.35
2023-05-16T23:29:27.288Z,3.15
2023-05-16T23:31:54.819Z,3.67
2023-05-16T23:34:22.598Z,3.13
2023-05-16T23:36:50.739Z,3.10
2023-05-16T23:39:18.773Z,3.72
2023-05-16T23:41:46.410Z,4.53
2023-05-16T23:44:13.934Z,3.85
2023-05-16T23:46:41.647Z,3.88
2023-05-16T23:49:09.549Z,4.22
2023-05-16T23:51:52.768Z,3.85
2023-05-16T23:54:24.104Z,4.20
2023-05-16T23:56:52.994Z,3.08
2023-05-16T23:59:21.656Z,3.53
